sensor_id;sensor_type;location;lat;lon;timestamp;temperature;humidity
49124;DHT22;48506;48.202;16.274;2023-06-22T00:00:59;22.00;99.90
49124;DHT22;48506;48.202;16.274;2023-06-22T00:03:26;21.90;99.90
49124;DHT22;48506;48.202;16.274;2023-06-22T00:05:53;21.90;99.90
49124;DHT22;48506;48.202;16.274;2023-06-22T00:08:19;21.90;99.90
49124;DHT22;48506;48.202;16.274;2023-06-22T00:10:46;21.80;99.90
49124;DHT22;48506;48.202;16.274;2023-06-22T00:13:13;21.80;99.90
49124;DHT22;48506;48.202;16.274;2023-06-22T00:15:41;21.80;99.90
49124;DHT22;48506;48.202;16.274;2023-06-22T00:18:09;21.80;99.90
49124;DHT22;48506;48.202;16.274;2023-06-22T00:20:36;21.80;99.90
49124;DHT22;48506;48.202;16.274;2023-06-22T00:23:04;21.80;99.90
49124;DHT22;48506;48.202;16.274;2023-06-22T00:25:39;21.70;99.90
49124;DHT22;48506;48.202;16.274;2023-06-22T00:28:06;21.80;99.90
49124;DHT22;48506;48.202;16.274;2023-06-22T00:30:34;21.60;99.90
49124;DHT22;48506;48.202;16.274;2023-06-22T00:33:00;21.60;99.90
49124;DHT22;48506;48.202;16.274;2023-06-22T00:35:27;21.50;99.90
49124;DHT22;48506;48.202;16.274;2023-06-22T00:37:59;21.50;99.90
49124;DHT22;48506;48.202;16.274;2023-06-22T00:40:31;21.50;99.90
49124;DHT22;48506;48.202;16.274;2023-06-22T00:42:58;21.40;99.90
49124;DHT22;48506;48.202;16.274;2023-06-22T00:45:25;21.30;99.90
49124;DHT22;48506;48.202;16.274;2023-06-22T00:47:53;21.30;99.90
49124;DHT22;48506;48.202;16.274;2023-06-22T00:50:23;21.30;99.90
49124;DHT22;48506;48.202;16.274;2023-06-22T00:52:57;21.30;99.90
49124;DHT22;48506;48.202;16.274;2023-06-22T00:55:25;21.30;99.90
49124;DHT22;48506;48.202;16.274;2023-06-22T00:57:54;21.30;99.90
49124;DHT22;48506;48.202;16.274;2023-06-22T01:00:24;21.30;99.90
49124;DHT22;48506;48.202;16.274;2023-06-22T01:02:52;21.20;99.90
49124;DHT22;48506;48.202;16.274;2023-06-22T01:05:22;21.10;99.90
49124;DHT22;48506;48.202;16.274;2023-06-22T01:10:46;21.20;99.90
49124;DHT22;48506;48.202;16.274;2023-06-22T01:16:43;21.10;99.90
49124;DHT22;48506;48.202;16.274;2023-06-22T01:18:52;21.20;99.90
49124;DHT22;48506;48.202;16.274;2023-06-22T01:21:20;21.10;99.90
49124;DHT22;48506;48.202;16.274;2023-06-22T01:26:28;21.10;99.90
49124;DHT22;48506;48.202;16.274;2023-06-22T01:29:01;21.20;99.90
49124;DHT22;48506;48.202;16.274;2023-06-22T01:31:29;21.20;99.90
49124;DHT22;48506;48.202;16.274;2023-06-22T01:34:03;21.20;99.90
49124;DHT22;48506;48.202;16.274;2023-06-22T01:36:31;21.20;99.90
49124;DHT22;48506;48.202;16.274;2023-06-22T01:38:59;21.20;99.90
49124;DHT22;48506;48.202;16.274;2023-06-22T01:41:26;21.30;99.90
49124;DHT22;48506;48.202;16.274;2023-06-22T01:43:55;21.20;99.90
49124;DHT22;48506;48.202;16.274;2023-06-22T01:46:22;21.20;99.90
49124;DHT22;48506;48.202;16.274;2023-06-22T01:48:49;21.30;99.90
49124;DHT22;48506;48.202;16.274;2023-06-22T01:51:16;21.30;99.90
49124;DHT22;48506;48.202;16.274;2023-06-22T01:53:42;21.30;99.90
49124;DHT22;48506;48.202;16.274;2023-06-22T01:56:08;21.20;99.90
49124;DHT22;48506;48.202;16.274;2023-06-22T01:58:38;21.20;99.90
49124;DHT22;48506;48.202;16.274;2023-06-22T02:01:12;21.20;99.90
49124;DHT22;48506;48.202;16.274;2023-06-22T02:03:46;21.10;99.90
49124;DHT22;48506;48.202;16.274;2023-06-22T02:06:25;21.10;99.90
49124;DHT22;48506;48.202;16.274;2023-06-22T02:08:59;21.00;99.90
49124;DHT22;48506;48.202;16.274;2023-06-22T02:11:28;21.00;99.90
49124;DHT22;48506;48.202;16.274;2023-06-22T02:13:57;20.90;99.90
49124;DHT22;48506;48.202;16.274;2023-06-22T02:16:23;20.90;99.90
49124;DHT22;48506;48.202;16.274;2023-06-22T02:18:50;20.80;99.90
49124;DHT22;48506;48.202;16.274;2023-06-22T02:21:20;20.80;99.90
49124;DHT22;48506;48.202;16.274;2023-06-22T02:23:46;20.80;99.90
49124;DHT22;48506;48.202;16.274;2023-06-22T02:26:13;20.80;99.90
49124;DHT22;48506;48.202;16.274;2023-06-22T02:28:39;20.80;99.90
49124;DHT22;48506;48.202;16.274;2023-06-22T02:31:05;20.70;99.90
49124;DHT22;48506;48.202;16.274;2023-06-22T02:33:31;20.70;99.90
49124;DHT22;48506;48.202;16.274;2023-06-22T02:35:57;20.80;99.90
49124;DHT22;48506;48.202;16.274;2023-06-22T02:38:23;20.80;99.90
49124;DHT22;48506;48.202;16.274;2023-06-22T02:40:50;20.70;99.90
49124;DHT22;48506;48.202;16.274;2023-06-22T02:43:16;20.80;99.90
49124;DHT22;48506;48.202;16.274;2023-06-22T02:45:42;20.70;99.90
49124;DHT22;48506;48.202;16.274;2023-06-22T02:48:08;20.70;99.90
49124;DHT22;48506;48.202;16.274;2023-06-22T02:50:35;20.70;99.90
49124;DHT22;48506;48.202;16.274;2023-06-22T02:53:01;20.60;99.90
49124;DHT22;48506;48.202;16.274;2023-06-22T02:55:27;20.60;99.90
49124;DHT22;48506;48.202;16.274;2023-06-22T02:57:53;20.60;99.90
49124;DHT22;48506;48.202;16.274;2023-06-22T03:00:19;20.60;99.90
49124;DHT22;48506;48.202;16.274;2023-06-22T03:02:49;20.60;99.90
49124;DHT22;48506;48.202;16.274;2023-06-22T03:05:16;20.60;99.90
49124;DHT22;48506;48.202;16.274;2023-06-22T03:07:46;20.60;99.90
49124;DHT22;48506;48.202;16.274;2023-06-22T03:10:13;20.60;99.90
49124;DHT22;48506;48.202;16.274;2023-06-22T03:12:41;20.50;99.90
49124;DHT22;48506;48.202;16.274;2023-06-22T03:15:10;20.50;99.90
49124;DHT22;48506;48.202;16.274;2023-06-22T03:17:37;20.60;99.90
49124;DHT22;48506;48.202;16.274;2023-06-22T03:20:08;20.50;99.90
49124;DHT22;48506;48.202;16.274;2023-06-22T03:22:36;20.60;99.90
49124;DHT22;48506;48.202;16.274;2023-06-22T03:25:03;20.60;99.90
49124;DHT22;48506;48.202;16.274;2023-06-22T03:27:28;20.60;99.90
49124;DHT22;48506;48.202;16.274;2023-06-22T03:29:56;20.70;99.90
49124;DHT22;48506;48.202;16.274;2023-06-22T03:32:23;20.70;99.90
49124;DHT22;48506;48.202;16.274;2023-06-22T03:34:48;20.70;99.90
49124;DHT22;48506;48.202;16.274;2023-06-22T03:37:15;20.70;99.90
49124;DHT22;48506;48.202;16.274;2023-06-22T03:39:43;20.70;99.90
49124;DHT22;48506;48.202;16.274;2023-06-22T03:42:09;20.70;99.90
49124;DHT22;48506;48.202;16.274;2023-06-22T03:44:36;20.70;99.90
49124;DHT22;48506;48.202;16.274;2023-06-22T03:47:05;20.70;99.90
49124;DHT22;48506;48.202;16.274;2023-06-22T03:49:33;20.60;99.90
49124;DHT22;48506;48.202;16.274;2023-06-22T03:52:00;20.60;99.90
49124;DHT22;48506;48.202;16.274;2023-06-22T03:54:28;20.60;99.90
49124;DHT22;48506;48.202;16.274;2023-06-22T03:56:56;20.60;99.90
49124;DHT22;48506;48.202;16.274;2023-06-22T03:59:22;20.60;99.90
49124;DHT22;48506;48.202;16.274;2023-06-22T04:01:49;20.70;99.90
49124;DHT22;48506;48.202;16.274;2023-06-22T04:04:18;20.70;99.90
49124;DHT22;48506;48.202;16.274;2023-06-22T04:06:45;20.70;99.90
49124;DHT22;48506;48.202;16.274;2023-06-22T04:09:11;20.70;99.90
49124;DHT22;48506;48.202;16.274;2023-06-22T04:11:38;20.80;99.90
49124;DHT22;48506;48.202;16.274;2023-06-22T04:14:04;20.80;99.90
49124;DHT22;48506;48.202;16.274;2023-06-22T04:16:30;20.80;99.90
49124;DHT22;48506;48.202;16.274;2023-06-22T04:18:56;20.80;99.90
49124;DHT22;48506;48.202;16.274;2023-06-22T04:21:22;20.80;99.90
49124;DHT22;48506;48.202;16.274;2023-06-22T04:23:48;20.90;99.90
49124;DHT22;48506;48.202;16.274;2023-06-22T04:26:14;20.90;99.90
49124;DHT22;48506;48.202;16.274;2023-06-22T04:28:41;21.00;99.90
49124;DHT22;48506;48.202;16.274;2023-06-22T04:31:07;21.10;99.90
49124;DHT22;48506;48.202;16.274;2023-06-22T04:33:33;21.20;99.90
49124;DHT22;48506;48.202;16.274;2023-06-22T04:35:59;21.20;99.90
49124;DHT22;48506;48.202;16.274;2023-06-22T04:38:29;21.20;99.90
49124;DHT22;48506;48.202;16.274;2023-06-22T04:40:59;21.30;99.90
49124;DHT22;48506;48.202;16.274;2023-06-22T04:43:27;21.40;99.90
49124;DHT22;48506;48.202;16.274;2023-06-22T04:45:57;21.50;99.90
49124;DHT22;48506;48.202;16.274;2023-06-22T04:48:29;21.50;99.90
49124;DHT22;48506;48.202;16.274;2023-06-22T04:50:59;21.60;99.90
49124;DHT22;48506;48.202;16.274;2023-06-22T04:53:30;21.70;99.90
49124;DHT22;48506;48.202;16.274;2023-06-22T04:55:56;21.80;99.90
49124;DHT22;48506;48.202;16.274;2023-06-22T04:58:22;21.80;99.90
49124;DHT22;48506;48.202;16.274;2023-06-22T05:00:49;21.80;99.90
49124;DHT22;48506;48.202;16.274;2023-06-22T05:03:17;21.80;99.90
49124;DHT22;48506;48.202;16.274;2023-06-22T05:05:44;21.90;99.90
49124;DHT22;48506;48.202;16.274;2023-06-22T05:08:10;22.00;99.90
49124;DHT22;48506;48.202;16.274;2023-06-22T05:10:36;22.00;99.90
49124;DHT22;48506;48.202;16.274;2023-06-22T05:13:02;22.00;99.90
49124;DHT22;48506;48.202;16.274;2023-06-22T05:15:28;22.10;99.90
49124;DHT22;48506;48.202;16.274;2023-06-22T05:17:56;22.10;99.90
49124;DHT22;48506;48.202;16.274;2023-06-22T05:20:22;22.20;99.90
49124;DHT22;48506;48.202;16.274;2023-06-22T05:22:48;22.20;99.90
49124;DHT22;48506;48.202;16.274;2023-06-22T05:25:14;22.40;99.90
49124;DHT22;48506;48.202;16.274;2023-06-22T05:27:40;22.50;99.90
49124;DHT22;48506;48.202;16.274;2023-06-22T05:30:07;22.60;99.90
49124;DHT22;48506;48.202;16.274;2023-06-22T05:32:35;22.70;99.90
49124;DHT22;48506;48.202;16.274;2023-06-22T05:35:02;22.70;99.90
49124;DHT22;48506;48.202;16.274;2023-06-22T05:37:29;22.80;99.90
49124;DHT22;48506;48.202;16.274;2023-06-22T05:39:55;22.90;99.90
49124;DHT22;48506;48.202;16.274;2023-06-22T05:42:23;23.00;99.90
49124;DHT22;48506;48.202;16.274;2023-06-22T05:44:52;23.10;99.90
49124;DHT22;48506;48.202;16.274;2023-06-22T05:47:19;23.30;99.90
49124;DHT22;48506;48.202;16.274;2023-06-22T05:49:45;23.30;99.90
49124;DHT22;48506;48.202;16.274;2023-06-22T05:52:11;23.40;99.90
49124;DHT22;48506;48.202;16.274;2023-06-22T05:54:37;23.40;99.90
49124;DHT22;48506;48.202;16.274;2023-06-22T05:57:05;23.70;99.90
49124;DHT22;48506;48.202;16.274;2023-06-22T05:59:30;23.90;99.90
49124;DHT22;48506;48.202;16.274;2023-06-22T06:01:57;24.10;99.90
49124;DHT22;48506;48.202;16.274;2023-06-22T06:04:23;24.20;99.90
49124;DHT22;48506;48.202;16.274;2023-06-22T06:06:49;24.40;99.50
49124;DHT22;48506;48.202;16.274;2023-06-22T06:09:15;24.60;99.50
49124;DHT22;48506;48.202;16.274;2023-06-22T06:11:41;24.70;99.00
49124;DHT22;48506;48.202;16.274;2023-06-22T06:14:08;24.90;98.70
49124;DHT22;48506;48.202;16.274;2023-06-22T06:16:34;25.00;98.80
49124;DHT22;48506;48.202;16.274;2023-06-22T06:19:00;25.10;98.00
49124;DHT22;48506;48.202;16.274;2023-06-22T06:21:27;25.20;97.80
49124;DHT22;48506;48.202;16.274;2023-06-22T06:23:53;25.30;97.60
49124;DHT22;48506;48.202;16.274;2023-06-22T06:26:19;25.50;97.40
49124;DHT22;48506;48.202;16.274;2023-06-22T06:28:55;25.60;97.70
49124;DHT22;48506;48.202;16.274;2023-06-22T06:31:21;25.60;96.90
49124;DHT22;48506;48.202;16.274;2023-06-22T06:33:47;25.70;96.70
49124;DHT22;48506;48.202;16.274;2023-06-22T06:36:13;25.80;96.50
49124;DHT22;48506;48.202;16.274;2023-06-22T06:38:40;26.00;96.10
49124;DHT22;48506;48.202;16.274;2023-06-22T06:41:06;26.00;95.60
49124;DHT22;48506;48.202;16.274;2023-06-22T06:43:31;26.10;95.70
49124;DHT22;48506;48.202;16.274;2023-06-22T06:45:58;26.20;95.70
49124;DHT22;48506;48.202;16.274;2023-06-22T06:48:24;26.30;95.00
49124;DHT22;48506;48.202;16.274;2023-06-22T06:50:50;26.30;94.70
49124;DHT22;48506;48.202;16.274;2023-06-22T06:53:16;26.40;94.80
49124;DHT22;48506;48.202;16.274;2023-06-22T06:55:42;26.40;94.60
49124;DHT22;48506;48.202;16.274;2023-06-22T06:58:11;26.50;94.50
49124;DHT22;48506;48.202;16.274;2023-06-22T07:00:39;26.50;95.00
49124;DHT22;48506;48.202;16.274;2023-06-22T07:03:05;26.60;95.10
49124;DHT22;48506;48.202;16.274;2023-06-22T07:05:33;26.90;95.10
49124;DHT22;48506;48.202;16.274;2023-06-22T07:07:59;27.00;94.70
49124;DHT22;48506;48.202;16.274;2023-06-22T07:10:25;27.10;94.60
49124;DHT22;48506;48.202;16.274;2023-06-22T07:12:51;27.20;94.30
49124;DHT22;48506;48.202;16.274;2023-06-22T07:15:17;27.20;94.20
49124;DHT22;48506;48.202;16.274;2023-06-22T07:17:43;27.30;94.00
49124;DHT22;48506;48.202;16.274;2023-06-22T07:20:10;27.40;94.20
49124;DHT22;48506;48.202;16.274;2023-06-22T07:22:39;27.50;94.30
49124;DHT22;48506;48.202;16.274;2023-06-22T07:25:06;27.60;94.30
49124;DHT22;48506;48.202;16.274;2023-06-22T07:27:36;27.70;94.40
49124;DHT22;48506;48.202;16.274;2023-06-22T07:30:04;27.80;94.10
49124;DHT22;48506;48.202;16.274;2023-06-22T07:32:31;27.90;93.90
49124;DHT22;48506;48.202;16.274;2023-06-22T07:34:58;27.90;94.00
49124;DHT22;48506;48.202;16.274;2023-06-22T07:37:24;28.00;93.70
49124;DHT22;48506;48.202;16.274;2023-06-22T07:39:51;28.10;93.60
49124;DHT22;48506;48.202;16.274;2023-06-22T07:42:19;28.20;93.40
49124;DHT22;48506;48.202;16.274;2023-06-22T07:44:45;28.30;93.80
49124;DHT22;48506;48.202;16.274;2023-06-22T07:47:11;28.30;92.90
49124;DHT22;48506;48.202;16.274;2023-06-22T07:49:37;28.40;93.00
49124;DHT22;48506;48.202;16.274;2023-06-22T07:52:03;28.50;92.80
49124;DHT22;48506;48.202;16.274;2023-06-22T07:54:30;28.60;93.00
49124;DHT22;48506;48.202;16.274;2023-06-22T07:56:56;28.80;93.00
49124;DHT22;48506;48.202;16.274;2023-06-22T07:59:22;28.80;92.90
49124;DHT22;48506;48.202;16.274;2023-06-22T08:01:48;28.90;92.50
49124;DHT22;48506;48.202;16.274;2023-06-22T08:04:15;28.90;92.40
49124;DHT22;48506;48.202;16.274;2023-06-22T08:06:41;29.00;92.50
49124;DHT22;48506;48.202;16.274;2023-06-22T08:09:07;29.10;92.20
49124;DHT22;48506;48.202;16.274;2023-06-22T08:11:33;29.30;92.30
49124;DHT22;48506;48.202;16.274;2023-06-22T08:14:00;29.40;92.00
49124;DHT22;48506;48.202;16.274;2023-06-22T08:16:25;29.50;92.00
49124;DHT22;48506;48.202;16.274;2023-06-22T08:18:51;29.60;92.20
49124;DHT22;48506;48.202;16.274;2023-06-22T08:21:17;29.70;92.10
49124;DHT22;48506;48.202;16.274;2023-06-22T08:23:43;29.80;91.60
49124;DHT22;48506;48.202;16.274;2023-06-22T08:26:10;29.80;91.70
49124;DHT22;48506;48.202;16.274;2023-06-22T08:28:36;29.90;92.10
49124;DHT22;48506;48.202;16.274;2023-06-22T08:31:02;29.90;91.20
49124;DHT22;48506;48.202;16.274;2023-06-22T08:33:29;30.00;91.30
49124;DHT22;48506;48.202;16.274;2023-06-22T08:35:57;30.10;91.00
49124;DHT22;48506;48.202;16.274;2023-06-22T08:38:23;30.10;91.10
49124;DHT22;48506;48.202;16.274;2023-06-22T08:40:50;30.30;90.80
49124;DHT22;48506;48.202;16.274;2023-06-22T08:43:16;30.30;90.40
49124;DHT22;48506;48.202;16.274;2023-06-22T08:45:42;30.40;89.30
49124;DHT22;48506;48.202;16.274;2023-06-22T08:48:08;30.50;88.40
49124;DHT22;48506;48.202;16.274;2023-06-22T08:50:34;30.50;89.10
49124;DHT22;48506;48.202;16.274;2023-06-22T08:53:00;30.60;89.80
49124;DHT22;48506;48.202;16.274;2023-06-22T08:55:26;30.70;89.50
49124;DHT22;48506;48.202;16.274;2023-06-22T08:57:52;30.80;88.70
49124;DHT22;48506;48.202;16.274;2023-06-22T09:00:19;30.90;87.70
49124;DHT22;48506;48.202;16.274;2023-06-22T09:02:46;30.80;87.50
49124;DHT22;48506;48.202;16.274;2023-06-22T09:05:13;30.90;87.80
49124;DHT22;48506;48.202;16.274;2023-06-22T09:07:39;31.00;88.20
49124;DHT22;48506;48.202;16.274;2023-06-22T09:10:06;31.10;88.50
49124;DHT22;48506;48.202;16.274;2023-06-22T09:12:33;31.20;87.10
49124;DHT22;48506;48.202;16.274;2023-06-22T09:15:00;31.30;88.30
49124;DHT22;48506;48.202;16.274;2023-06-22T09:17:26;31.50;87.40
49124;DHT22;48506;48.202;16.274;2023-06-22T09:19:53;31.60;85.00
49124;DHT22;48506;48.202;16.274;2023-06-22T09:22:19;31.50;85.60
49124;DHT22;48506;48.202;16.274;2023-06-22T09:24:45;31.60;87.10
49124;DHT22;48506;48.202;16.274;2023-06-22T09:27:11;31.60;85.70
49124;DHT22;48506;48.202;16.274;2023-06-22T09:29:37;31.70;85.20
49124;DHT22;48506;48.202;16.274;2023-06-22T09:32:04;31.80;85.60
49124;DHT22;48506;48.202;16.274;2023-06-22T09:34:30;31.90;85.40
49124;DHT22;48506;48.202;16.274;2023-06-22T09:36:57;32.00;83.00
49124;DHT22;48506;48.202;16.274;2023-06-22T09:39:26;32.10;84.00
49124;DHT22;48506;48.202;16.274;2023-06-22T09:41:52;32.20;83.30
49124;DHT22;48506;48.202;16.274;2023-06-22T09:44:18;32.20;83.00
49124;DHT22;48506;48.202;16.274;2023-06-22T09:46:45;32.40;83.70
49124;DHT22;48506;48.202;16.274;2023-06-22T09:49:11;32.50;83.70
49124;DHT22;48506;48.202;16.274;2023-06-22T09:51:37;32.60;83.00
49124;DHT22;48506;48.202;16.274;2023-06-22T09:54:03;32.70;82.60
49124;DHT22;48506;48.202;16.274;2023-06-22T09:56:29;32.80;82.80
49124;DHT22;48506;48.202;16.274;2023-06-22T09:58:56;32.90;82.10
49124;DHT22;48506;48.202;16.274;2023-06-22T10:01:22;33.00;82.40
49124;DHT22;48506;48.202;16.274;2023-06-22T10:03:49;33.10;81.40
49124;DHT22;48506;48.202;16.274;2023-06-22T10:06:15;33.10;80.60
49124;DHT22;48506;48.202;16.274;2023-06-22T10:08:41;33.10;80.30
49124;DHT22;48506;48.202;16.274;2023-06-22T10:11:08;33.10;80.90
49124;DHT22;48506;48.202;16.274;2023-06-22T10:13:33;33.30;82.00
49124;DHT22;48506;48.202;16.274;2023-06-22T10:15:59;33.50;82.20
49124;DHT22;48506;48.202;16.274;2023-06-22T10:18:25;33.60;81.00
49124;DHT22;48506;48.202;16.274;2023-06-22T10:20:52;33.70;80.90
49124;DHT22;48506;48.202;16.274;2023-06-22T10:23:19;33.70;81.90
49124;DHT22;48506;48.202;16.274;2023-06-22T10:25:46;33.80;81.50
49124;DHT22;48506;48.202;16.274;2023-06-22T10:28:12;33.90;81.10
49124;DHT22;48506;48.202;16.274;2023-06-22T10:30:42;33.90;79.50
49124;DHT22;48506;48.202;16.274;2023-06-22T10:33:09;33.70;77.50
49124;DHT22;48506;48.202;16.274;2023-06-22T10:35:36;33.70;78.60
49124;DHT22;48506;48.202;16.274;2023-06-22T10:38:06;33.70;78.80
49124;DHT22;48506;48.202;16.274;2023-06-22T10:40:33;33.90;79.60
49124;DHT22;48506;48.202;16.274;2023-06-22T10:42:59;34.00;78.70
49124;DHT22;48506;48.202;16.274;2023-06-22T10:45:25;33.90;78.20
49124;DHT22;48506;48.202;16.274;2023-06-22T10:47:53;34.00;77.80
49124;DHT22;48506;48.202;16.274;2023-06-22T10:50:19;34.10;76.50
49124;DHT22;48506;48.202;16.274;2023-06-22T10:52:46;34.20;76.30
49124;DHT22;48506;48.202;16.274;2023-06-22T10:55:12;34.40;75.00
49124;DHT22;48506;48.202;16.274;2023-06-22T10:57:38;34.30;74.50
49124;DHT22;48506;48.202;16.274;2023-06-22T11:00:09;34.30;73.00
49124;DHT22;48506;48.202;16.274;2023-06-22T11:02:37;34.30;74.10
49124;DHT22;48506;48.202;16.274;2023-06-22T11:05:03;34.30;75.30
49124;DHT22;48506;48.202;16.274;2023-06-22T11:07:29;34.30;73.10
49124;DHT22;48506;48.202;16.274;2023-06-22T11:09:56;34.30;72.70
49124;DHT22;48506;48.202;16.274;2023-06-22T11:12:22;34.40;73.00
49124;DHT22;48506;48.202;16.274;2023-06-22T11:14:48;34.50;71.80
49124;DHT22;48506;48.202;16.274;2023-06-22T11:17:17;34.40;71.70
49124;DHT22;48506;48.202;16.274;2023-06-22T11:19:44;34.30;71.70
49124;DHT22;48506;48.202;16.274;2023-06-22T11:22:10;34.30;71.90
49124;DHT22;48506;48.202;16.274;2023-06-22T11:24:37;34.30;73.70
49124;DHT22;48506;48.202;16.274;2023-06-22T11:27:03;34.50;72.20
49124;DHT22;48506;48.202;16.274;2023-06-22T11:29:29;34.50;72.10
49124;DHT22;48506;48.202;16.274;2023-06-22T11:31:56;34.50;71.20
49124;DHT22;48506;48.202;16.274;2023-06-22T11:34:22;34.50;71.70
49124;DHT22;48506;48.202;16.274;2023-06-22T11:36:48;34.50;72.20
49124;DHT22;48506;48.202;16.274;2023-06-22T11:39:14;34.40;71.60
49124;DHT22;48506;48.202;16.274;2023-06-22T11:41:41;34.50;72.70
49124;DHT22;48506;48.202;16.274;2023-06-22T11:44:08;34.60;73.40
49124;DHT22;48506;48.202;16.274;2023-06-22T11:46:34;34.60;72.40
49124;DHT22;48506;48.202;16.274;2023-06-22T11:49:01;34.60;71.90
49124;DHT22;48506;48.202;16.274;2023-06-22T11:51:27;34.60;71.70
49124;DHT22;48506;48.202;16.274;2023-06-22T11:53:54;34.50;72.00
49124;DHT22;48506;48.202;16.274;2023-06-22T11:56:20;34.50;72.50
49124;DHT22;48506;48.202;16.274;2023-06-22T11:58:46;34.30;72.10
49124;DHT22;48506;48.202;16.274;2023-06-22T12:01:12;34.30;72.40
49124;DHT22;48506;48.202;16.274;2023-06-22T12:03:42;34.30;71.80
49124;DHT22;48506;48.202;16.274;2023-06-22T12:06:10;34.30;72.70
49124;DHT22;48506;48.202;16.274;2023-06-22T12:08:37;34.40;71.70
49124;DHT22;48506;48.202;16.274;2023-06-22T12:11:03;34.50;72.50
49124;DHT22;48506;48.202;16.274;2023-06-22T12:13:29;34.40;72.20
49124;DHT22;48506;48.202;16.274;2023-06-22T12:15:56;34.50;72.80
49124;DHT22;48506;48.202;16.274;2023-06-22T12:18:22;34.50;73.20
49124;DHT22;48506;48.202;16.274;2023-06-22T12:20:48;34.50;71.90
49124;DHT22;48506;48.202;16.274;2023-06-22T12:23:15;34.40;72.10
49124;DHT22;48506;48.202;16.274;2023-06-22T12:25:42;34.40;72.70
49124;DHT22;48506;48.202;16.274;2023-06-22T12:28:08;34.50;72.20
49124;DHT22;48506;48.202;16.274;2023-06-22T12:30:35;34.50;72.60
49124;DHT22;48506;48.202;16.274;2023-06-22T12:33:01;34.60;73.00
49124;DHT22;48506;48.202;16.274;2023-06-22T12:35:27;34.60;71.50
49124;DHT22;48506;48.202;16.274;2023-06-22T12:37:54;34.60;71.70
49124;DHT22;48506;48.202;16.274;2023-06-22T12:40:20;34.60;72.10
49124;DHT22;48506;48.202;16.274;2023-06-22T12:42:46;34.60;71.80
49124;DHT22;48506;48.202;16.274;2023-06-22T12:45:12;34.70;71.50
49124;DHT22;48506;48.202;16.274;2023-06-22T12:47:38;34.60;70.60
49124;DHT22;48506;48.202;16.274;2023-06-22T12:50:05;34.60;71.00
49124;DHT22;48506;48.202;16.274;2023-06-22T12:52:31;34.70;71.70
49124;DHT22;48506;48.202;16.274;2023-06-22T12:54:58;34.70;71.00
49124;DHT22;48506;48.202;16.274;2023-06-22T12:57:24;34.70;71.30
49124;DHT22;48506;48.202;16.274;2023-06-22T12:59:51;34.70;70.20
49124;DHT22;48506;48.202;16.274;2023-06-22T13:02:17;34.70;71.30
49124;DHT22;48506;48.202;16.274;2023-06-22T13:04:43;34.70;69.90
49124;DHT22;48506;48.202;16.274;2023-06-22T13:07:09;34.70;70.90
49124;DHT22;48506;48.202;16.274;2023-06-22T13:09:36;34.70;70.70
49124;DHT22;48506;48.202;16.274;2023-06-22T13:12:03;34.60;70.80
49124;DHT22;48506;48.202;16.274;2023-06-22T13:14:29;34.60;69.40
49124;DHT22;48506;48.202;16.274;2023-06-22T13:16:55;34.50;70.80
49124;DHT22;48506;48.202;16.274;2023-06-22T13:19:21;34.50;71.80
49124;DHT22;48506;48.202;16.274;2023-06-22T13:21:47;34.40;71.00
49124;DHT22;48506;48.202;16.274;2023-06-22T13:24:13;34.40;70.90
49124;DHT22;48506;48.202;16.274;2023-06-22T13:26:39;34.40;71.90
49124;DHT22;48506;48.202;16.274;2023-06-22T13:29:05;34.40;70.60
49124;DHT22;48506;48.202;16.274;2023-06-22T13:31:31;34.40;71.30
49124;DHT22;48506;48.202;16.274;2023-06-22T13:33:57;34.20;70.30
49124;DHT22;48506;48.202;16.274;2023-06-22T13:36:23;34.10;71.20
49124;DHT22;48506;48.202;16.274;2023-06-22T13:38:49;34.00;71.30
49124;DHT22;48506;48.202;16.274;2023-06-22T13:41:15;34.10;71.00
49124;DHT22;48506;48.202;16.274;2023-06-22T13:43:42;34.00;71.20
49124;DHT22;48506;48.202;16.274;2023-06-22T13:46:08;34.00;70.80
49124;DHT22;48506;48.202;16.274;2023-06-22T13:48:34;34.00;71.60
49124;DHT22;48506;48.202;16.274;2023-06-22T13:51:00;33.90;71.40
49124;DHT22;48506;48.202;16.274;2023-06-22T13:53:26;34.00;71.50
49124;DHT22;48506;48.202;16.274;2023-06-22T13:55:52;34.00;71.60
49124;DHT22;48506;48.202;16.274;2023-06-22T13:58:18;33.90;71.60
49124;DHT22;48506;48.202;16.274;2023-06-22T14:00:46;33.90;71.30
49124;DHT22;48506;48.202;16.274;2023-06-22T14:03:12;33.80;70.90
49124;DHT22;48506;48.202;16.274;2023-06-22T14:05:42;33.80;72.30
49124;DHT22;48506;48.202;16.274;2023-06-22T14:08:08;33.80;71.80
49124;DHT22;48506;48.202;16.274;2023-06-22T14:10:35;33.70;71.40
49124;DHT22;48506;48.202;16.274;2023-06-22T14:13:01;33.40;72.40
49124;DHT22;48506;48.202;16.274;2023-06-22T14:15:27;33.30;72.30
49124;DHT22;48506;48.202;16.274;2023-06-22T14:17:53;33.30;72.80
49124;DHT22;48506;48.202;16.274;2023-06-22T14:20:19;33.30;73.40
49124;DHT22;48506;48.202;16.274;2023-06-22T14:22:45;33.40;73.70
49124;DHT22;48506;48.202;16.274;2023-06-22T14:25:11;33.40;73.40
49124;DHT22;48506;48.202;16.274;2023-06-22T14:27:38;33.30;73.30
49124;DHT22;48506;48.202;16.274;2023-06-22T14:30:04;33.20;74.00
49124;DHT22;48506;48.202;16.274;2023-06-22T14:32:31;33.20;74.90
49124;DHT22;48506;48.202;16.274;2023-06-22T14:34:57;33.20;74.10
49124;DHT22;48506;48.202;16.274;2023-06-22T14:37:23;33.20;74.30
49124;DHT22;48506;48.202;16.274;2023-06-22T14:39:49;33.30;74.60
49124;DHT22;48506;48.202;16.274;2023-06-22T14:42:15;33.30;74.40
49124;DHT22;48506;48.202;16.274;2023-06-22T14:44:41;33.30;74.20
49124;DHT22;48506;48.202;16.274;2023-06-22T14:47:08;33.30;74.70
49124;DHT22;48506;48.202;16.274;2023-06-22T14:49:34;33.20;73.80
49124;DHT22;48506;48.202;16.274;2023-06-22T14:52:02;33.10;74.30
49124;DHT22;48506;48.202;16.274;2023-06-22T14:54:28;32.90;74.40
49124;DHT22;48506;48.202;16.274;2023-06-22T14:56:54;32.80;74.50
49124;DHT22;48506;48.202;16.274;2023-06-22T14:59:20;32.80;75.40
49124;DHT22;48506;48.202;16.274;2023-06-22T15:01:46;32.80;74.40
49124;DHT22;48506;48.202;16.274;2023-06-22T15:04:12;32.90;75.00
49124;DHT22;48506;48.202;16.274;2023-06-22T15:06:38;33.10;77.40
49124;DHT22;48506;48.202;16.274;2023-06-22T15:09:05;33.10;75.00
49124;DHT22;48506;48.202;16.274;2023-06-22T15:11:30;33.20;74.60
49124;DHT22;48506;48.202;16.274;2023-06-22T15:13:59;33.30;75.20
49124;DHT22;48506;48.202;16.274;2023-06-22T15:16:26;33.30;76.10
49124;DHT22;48506;48.202;16.274;2023-06-22T15:18:52;33.30;74.50
49124;DHT22;48506;48.202;16.274;2023-06-22T15:21:18;33.20;74.20